sensor_id;sensor_type;location;lat;lon;timestamp;pressure;altitude;pressure_sealevel;temperature
33877;BMP180;20166;51.738;7.158;2023-08-12T00:02:21;101324.00;;;21.90
33877;BMP180;20166;51.738;7.158;2023-08-12T00:05:08;101326.00;;;21.90
33877;BMP180;20166;51.738;7.158;2023-08-12T00:07:56;101317.00;;;21.90
33877;BMP180;20166;51.738;7.158;2023-08-12T00:10:42;101317.00;;;21.90
33877;BMP180;20166;51.738;7.158;2023-08-12T00:13:28;101309.00;;;21.90
33877;BMP180;20166;51.738;7.158;2023-08-12T00:16:17;101317.00;;;21.80
33877;BMP180;20166;51.738;7.158;2023-08-12T00:19:03;101305.00;;;21.80
33877;BMP180;20166;51.738;7.158;2023-08-12T00:21:49;101311.00;;;21.80
33877;BMP180;20166;51.738;7.158;2023-08-12T00:24:37;101317.00;;;21.80
33877;BMP180;20166;51.738;7.158;2023-08-12T00:27:24;101308.00;;;21.80
33877;BMP180;20166;51.738;7.158;2023-08-12T00:30:11;101306.00;;;21.80
33877;BMP180;20166;51.738;7.158;2023-08-12T00:32:59;101308.00;;;21.80
33877;BMP180;20166;51.738;7.158;2023-08-12T00:35:45;101306.00;;;21.70
33877;BMP180;20166;51.738;7.158;2023-08-12T00:38:32;101306.00;;;21.70
33877;BMP180;20166;51.738;7.158;2023-08-12T00:41:19;101304.00;;;21.70
33877;BMP180;20166;51.738;7.158;2023-08-12T00:44:05;101310.00;;;21.70
33877;BMP180;20166;51.738;7.158;2023-08-12T00:46:52;101295.00;;;21.70
33877;BMP180;20166;51.738;7.158;2023-08-12T00:49:42;101298.00;;;21.70
33877;BMP180;20166;51.738;7.158;2023-08-12T00:52:30;101291.00;;;21.70
33877;BMP180;20166;51.738;7.158;2023-08-12T00:55:17;101290.00;;;21.70
33877;BMP180;20166;51.738;7.158;2023-08-12T00:58:04;101292.00;;;21.70
33877;BMP180;20166;51.738;7.158;2023-08-12T01:00:51;101293.00;;;21.60
33877;BMP180;20166;51.738;7.158;2023-08-12T01:03:37;101281.00;;;21.60
33877;BMP180;20166;51.738;7.158;2023-08-12T01:06:26;101278.00;;;21.60
33877;BMP180;20166;51.738;7.158;2023-08-12T01:09:13;101267.00;;;21.60
33877;BMP180;20166;51.738;7.158;2023-08-12T01:12:05;101262.00;;;21.60
33877;BMP180;20166;51.738;7.158;2023-08-12T01:14:57;101260.00;;;21.60
33877;BMP180;20166;51.738;7.158;2023-08-12T01:17:45;101256.00;;;21.60
33877;BMP180;20166;51.738;7.158;2023-08-12T01:20:34;101256.00;;;21.50
33877;BMP180;20166;51.738;7.158;2023-08-12T01:23:22;101253.00;;;21.50
33877;BMP180;20166;51.738;7.158;2023-08-12T01:26:08;101257.00;;;21.50
33877;BMP180;20166;51.738;7.158;2023-08-12T01:28:55;101256.00;;;21.50
33877;BMP180;20166;51.738;7.158;2023-08-12T01:31:45;101256.00;;;21.50
33877;BMP180;20166;51.738;7.158;2023-08-12T01:34:40;101267.00;;;21.50
33877;BMP180;20166;51.738;7.158;2023-08-12T01:37:29;101257.00;;;21.40
33877;BMP180;20166;51.738;7.158;2023-08-12T01:40:18;101249.00;;;21.40
33877;BMP180;20166;51.738;7.158;2023-08-12T01:43:05;101243.00;;;21.40
33877;BMP180;20166;51.738;7.158;2023-08-12T01:45:53;101230.00;;;21.40
33877;BMP180;20166;51.738;7.158;2023-08-12T01:48:40;101226.00;;;21.40
33877;BMP180;20166;51.738;7.158;2023-08-12T01:51:28;101232.00;;;21.40
33877;BMP180;20166;51.738;7.158;2023-08-12T01:54:15;101239.00;;;21.40
33877;BMP180;20166;51.738;7.158;2023-08-12T01:57:04;101225.00;;;21.30
33877;BMP180;20166;51.738;7.158;2023-08-12T01:59:51;101230.00;;;21.30
33877;BMP180;20166;51.738;7.158;2023-08-12T02:02:38;101223.00;;;21.30
33877;BMP180;20166;51.738;7.158;2023-08-12T02:05:25;101223.00;;;21.30
33877;BMP180;20166;51.738;7.158;2023-08-12T02:08:12;101224.00;;;21.30
33877;BMP180;20166;51.738;7.158;2023-08-12T02:10:59;101225.00;;;21.30
33877;BMP180;20166;51.738;7.158;2023-08-12T02:13:47;101220.00;;;21.30
33877;BMP180;20166;51.738;7.158;2023-08-12T02:16:34;101222.00;;;21.30
33877;BMP180;20166;51.738;7.158;2023-08-12T02:19:20;101224.00;;;21.30
33877;BMP180;20166;51.738;7.158;2023-08-12T02:22:06;101219.00;;;21.20
33877;BMP180;20166;51.738;7.158;2023-08-12T02:24:53;101217.00;;;21.20
33877;BMP180;20166;51.738;7.158;2023-08-12T02:27:39;101214.00;;;21.20
33877;BMP180;20166;51.738;7.158;2023-08-12T02:30:29;101217.00;;;21.20
33877;BMP180;20166;51.738;7.158;2023-08-12T02:33:15;101205.00;;;21.20
33877;BMP180;20166;51.738;7.158;2023-08-12T02:36:02;101212.00;;;21.20
33877;BMP180;20166;51.738;7.158;2023-08-12T02:38:48;101207.00;;;21.20
33877;BMP180;20166;51.738;7.158;2023-08-12T02:41:35;101207.00;;;21.20
33877;BMP180;20166;51.738;7.158;2023-08-12T02:44:21;101213.00;;;21.20
33877;BMP180;20166;51.738;7.158;2023-08-12T02:47:09;101199.00;;;21.20
33877;BMP180;20166;51.738;7.158;2023-08-12T02:49:56;101196.00;;;21.20
33877;BMP180;20166;51.738;7.158;2023-08-12T02:52:42;101194.00;;;21.20
33877;BMP180;20166;51.738;7.158;2023-08-12T02:55:29;101195.00;;;21.20
33877;BMP180;20166;51.738;7.158;2023-08-12T02:58:17;101188.00;;;21.20
33877;BMP180;20166;51.738;7.158;2023-08-12T03:01:03;101189.00;;;21.10
33877;BMP180;20166;51.738;7.158;2023-08-12T03:03:51;101191.00;;;21.10
33877;BMP180;20166;51.738;7.158;2023-08-12T03:06:37;101187.00;;;21.10
33877;BMP180;20166;51.738;7.158;2023-08-12T03:09:24;101182.00;;;21.10
33877;BMP180;20166;51.738;7.158;2023-08-12T03:12:10;101169.00;;;21.10
33877;BMP180;20166;51.738;7.158;2023-08-12T03:14:57;101177.00;;;21.10
33877;BMP180;20166;51.738;7.158;2023-08-12T03:17:43;101179.00;;;21.10
33877;BMP180;20166;51.738;7.158;2023-08-12T03:20:33;101175.00;;;21.20
33877;BMP180;20166;51.738;7.158;2023-08-12T03:23:19;101171.00;;;21.10
33877;BMP180;20166;51.738;7.158;2023-08-12T03:26:06;101167.00;;;21.10
33877;BMP180;20166;51.738;7.158;2023-08-12T03:28:52;101164.00;;;21.10
33877;BMP180;20166;51.738;7.158;2023-08-12T03:31:38;101160.00;;;21.10
33877;BMP180;20166;51.738;7.158;2023-08-12T03:34:27;101153.00;;;21.10
33877;BMP180;20166;51.738;7.158;2023-08-12T03:37:15;101152.00;;;21.10
33877;BMP180;20166;51.738;7.158;2023-08-12T03:40:02;101161.00;;;21.10
33877;BMP180;20166;51.738;7.158;2023-08-12T03:42:49;101158.00;;;21.10
33877;BMP180;20166;51.738;7.158;2023-08-12T03:45:39;101143.00;;;21.10
33877;BMP180;20166;51.738;7.158;2023-08-12T03:48:26;101159.00;;;21.10
33877;BMP180;20166;51.738;7.158;2023-08-12T03:51:12;101149.00;;;21.10
33877;BMP180;20166;51.738;7.158;2023-08-12T03:54:00;101158.00;;;21.00
33877;BMP180;20166;51.738;7.158;2023-08-12T03:56:47;101153.00;;;21.10
33877;BMP180;20166;51.738;7.158;2023-08-12T03:59:33;101147.00;;;21.00
33877;BMP180;20166;51.738;7.158;2023-08-12T04:02:19;101157.00;;;21.00
33877;BMP180;20166;51.738;7.158;2023-08-12T04:05:06;101146.00;;;21.00
33877;BMP180;20166;51.738;7.158;2023-08-12T04:07:53;101147.00;;;21.00
33877;BMP180;20166;51.738;7.158;2023-08-12T04:10:44;101148.00;;;21.10
33877;BMP180;20166;51.738;7.158;2023-08-12T04:13:30;101140.00;;;21.00
33877;BMP180;20166;51.738;7.158;2023-08-12T04:16:16;101152.00;;;21.00
33877;BMP180;20166;51.738;7.158;2023-08-12T04:19:03;101140.00;;;21.10
33877;BMP180;20166;51.738;7.158;2023-08-12T04:21:50;101133.00;;;21.00
33877;BMP180;20166;51.738;7.158;2023-08-12T04:24:36;101142.00;;;21.00
33877;BMP180;20166;51.738;7.158;2023-08-12T04:27:24;101135.00;;;21.00
33877;BMP180;20166;51.738;7.158;2023-08-12T04:30:10;101127.00;;;21.00
33877;BMP180;20166;51.738;7.158;2023-08-12T04:32:57;101125.00;;;21.00
33877;BMP180;20166;51.738;7.158;2023-08-12T04:35:43;101122.00;;;21.00
33877;BMP180;20166;51.738;7.158;2023-08-12T04:38:30;101114.00;;;21.00
33877;BMP180;20166;51.738;7.158;2023-08-12T04:41:16;101120.00;;;21.00
33877;BMP180;20166;51.738;7.158;2023-08-12T04:44:05;101112.00;;;21.00
33877;BMP180;20166;51.738;7.158;2023-08-12T04:46:51;101109.00;;;21.10
33877;BMP180;20166;51.738;7.158;2023-08-12T04:49:38;101096.00;;;21.10
33877;BMP180;20166;51.738;7.158;2023-08-12T04:52:25;101102.00;;;21.10
33877;BMP180;20166;51.738;7.158;2023-08-12T04:55:11;101094.00;;;21.10
33877;BMP180;20166;51.738;7.158;2023-08-12T04:57:58;101087.00;;;21.10
33877;BMP180;20166;51.738;7.158;2023-08-12T05:00:46;101088.00;;;21.10
33877;BMP180;20166;51.738;7.158;2023-08-12T05:03:32;101088.00;;;21.10
33877;BMP180;20166;51.738;7.158;2023-08-12T05:06:19;101085.00;;;21.10
33877;BMP180;20166;51.738;7.158;2023-08-12T05:09:05;101086.00;;;21.10
33877;BMP180;20166;51.738;7.158;2023-08-12T05:11:51;101079.00;;;21.10
33877;BMP180;20166;51.738;7.158;2023-08-12T05:14:39;101079.00;;;21.20
33877;BMP180;20166;51.738;7.158;2023-08-12T05:17:27;101070.00;;;21.20
33877;BMP180;20166;51.738;7.158;2023-08-12T05:20:13;101075.00;;;21.20
33877;BMP180;20166;51.738;7.158;2023-08-12T05:23:00;101075.00;;;21.20
33877;BMP180;20166;51.738;7.158;2023-08-12T05:25:47;101074.00;;;21.20
33877;BMP180;20166;51.738;7.158;2023-08-12T05:28:34;101072.00;;;21.20
33877;BMP180;20166;51.738;7.158;2023-08-12T05:31:20;101073.00;;;21.20
33877;BMP180;20166;51.738;7.158;2023-08-12T05:34:08;101078.00;;;21.30
33877;BMP180;20166;51.738;7.158;2023-08-12T05:36:55;101071.00;;;21.30
33877;BMP180;20166;51.738;7.158;2023-08-12T05:39:41;101062.00;;;21.30
33877;BMP180;20166;51.738;7.158;2023-08-12T05:42:28;101059.00;;;21.40
33877;BMP180;20166;51.738;7.158;2023-08-12T05:45:14;101047.00;;;21.50
33877;BMP180;20166;51.738;7.158;2023-08-12T05:48:01;101063.00;;;21.60
33877;BMP180;20166;51.738;7.158;2023-08-12T05:50:49;101061.00;;;21.60
33877;BMP180;20166;51.738;7.158;2023-08-12T05:53:35;101058.00;;;21.60
33877;BMP180;20166;51.738;7.158;2023-08-12T05:56:22;101063.00;;;21.60
33877;BMP180;20166;51.738;7.158;2023-08-12T05:59:08;101059.00;;;21.60
33877;BMP180;20166;51.738;7.158;2023-08-12T06:01:55;101046.00;;;21.60
33877;BMP180;20166;51.738;7.158;2023-08-12T06:04:41;101047.00;;;21.60
33877;BMP180;20166;51.738;7.158;2023-08-12T06:07:29;101046.00;;;21.60
33877;BMP180;20166;51.738;7.158;2023-08-12T06:10:15;101045.00;;;21.60
33877;BMP180;20166;51.738;7.158;2023-08-12T06:13:02;101046.00;;;21.60
33877;BMP180;20166;51.738;7.158;2023-08-12T06:15:48;101040.00;;;21.60
33877;BMP180;20166;51.738;7.158;2023-08-12T06:18:35;101031.00;;;21.70
33877;BMP180;20166;51.738;7.158;2023-08-12T06:21:21;101033.00;;;21.70
33877;BMP180;20166;51.738;7.158;2023-08-12T06:24:09;101029.00;;;21.80
33877;BMP180;20166;51.738;7.158;2023-08-12T06:26:55;101026.00;;;21.90
33877;BMP180;20166;51.738;7.158;2023-08-12T06:29:42;101021.00;;;22.00
33877;BMP180;20166;51.738;7.158;2023-08-12T06:32:29;101027.00;;;22.00
33877;BMP180;20166;51.738;7.158;2023-08-12T06:35:15;101025.00;;;22.10
33877;BMP180;20166;51.738;7.158;2023-08-12T06:38:02;101019.00;;;22.00
33877;BMP180;20166;51.738;7.158;2023-08-12T06:40:50;101021.00;;;22.00
33877;BMP180;20166;51.738;7.158;2023-08-12T06:43:37;101021.00;;;22.00
33877;BMP180;20166;51.738;7.158;2023-08-12T06:46:23;101018.00;;;21.90
33877;BMP180;20166;51.738;7.158;2023-08-12T06:49:10;101029.00;;;21.90
33877;BMP180;20166;51.738;7.158;2023-08-12T06:51:57;101018.00;;;21.80
33877;BMP180;20166;51.738;7.158;2023-08-12T06:54:43;101017.00;;;21.80
33877;BMP180;20166;51.738;7.158;2023-08-12T06:57:31;101015.00;;;21.80
33877;BMP180;20166;51.738;7.158;2023-08-12T07:00:17;101021.00;;;21.70
33877;BMP180;20166;51.738;7.158;2023-08-12T07:03:04;101012.00;;;21.70
33877;BMP180;20166;51.738;7.158;2023-08-12T07:05:51;101018.00;;;21.70
33877;BMP180;20166;51.738;7.158;2023-08-12T07:08:38;101007.00;;;21.70
33877;BMP180;20166;51.738;7.158;2023-08-12T07:11:24;101007.00;;;21.60
33877;BMP180;20166;51.738;7.158;2023-08-12T07:14:12;101022.00;;;21.60
33877;BMP180;20166;51.738;7.158;2023-08-12T07:16:58;101005.00;;;21.50
33877;BMP180;20166;51.738;7.158;2023-08-12T07:19:44;100995.00;;;21.60
33877;BMP180;20166;51.738;7.158;2023-08-12T07:22:30;100994.00;;;21.60
33877;BMP180;20166;51.738;7.158;2023-08-12T07:25:17;100981.00;;;21.60
33877;BMP180;20166;51.738;7.158;2023-08-12T07:28:04;100981.00;;;21.70
33877;BMP180;20166;51.738;7.158;2023-08-12T07:30:53;100989.00;;;21.70
33877;BMP180;20166;51.738;7.158;2023-08-12T07:33:39;100987.00;;;21.80
33877;BMP180;20166;51.738;7.158;2023-08-12T07:36:26;100991.00;;;21.70
33877;BMP180;20166;51.738;7.158;2023-08-12T07:39:12;100983.00;;;21.80
33877;BMP180;20166;51.738;7.158;2023-08-12T07:41:59;100982.00;;;21.80
33877;BMP180;20166;51.738;7.158;2023-08-12T07:44:46;100981.00;;;21.80
33877;BMP180;20166;51.738;7.158;2023-08-12T07:47:35;100985.00;;;21.80
33877;BMP180;20166;51.738;7.158;2023-08-12T07:50:24;100992.00;;;21.80
33877;BMP180;20166;51.738;7.158;2023-08-12T07:53:11;100981.00;;;21.90
33877;BMP180;20166;51.738;7.158;2023-08-12T07:55:58;100978.00;;;21.90
33877;BMP180;20166;51.738;7.158;2023-08-12T07:58:45;100974.00;;;22.00
33877;BMP180;20166;51.738;7.158;2023-08-12T08:01:32;100978.00;;;22.00
33877;BMP180;20166;51.738;7.158;2023-08-12T08:04:24;100983.00;;;22.10
33877;BMP180;20166;51.738;7.158;2023-08-12T08:07:11;100989.00;;;22.00
33877;BMP180;20166;51.738;7.158;2023-08-12T08:09:57;100982.00;;;22.00
33877;BMP180;20166;51.738;7.158;2023-08-12T08:12:44;100979.00;;;21.90
33877;BMP180;20166;51.738;7.158;2023-08-12T08:15:30;100979.00;;;21.90
33877;BMP180;20166;51.738;7.158;2023-08-12T08:18:17;100981.00;;;21.90
33877;BMP180;20166;51.738;7.158;2023-08-12T08:21:05;100976.00;;;21.90
33877;BMP180;20166;51.738;7.158;2023-08-12T08:23:51;100966.00;;;21.90
33877;BMP180;20166;51.738;7.158;2023-08-12T08:26:38;100962.00;;;22.00
33877;BMP180;20166;51.738;7.158;2023-08-12T08:29:25;100978.00;;;22.00
33877;BMP180;20166;51.738;7.158;2023-08-12T08:32:12;100963.00;;;21.90
33877;BMP180;20166;51.738;7.158;2023-08-12T08:34:58;100972.00;;;22.00
33877;BMP180;20166;51.738;7.158;2023-08-12T08:37:46;100968.00;;;22.00
33877;BMP180;20166;51.738;7.158;2023-08-12T08:40:32;100975.00;;;22.10
33877;BMP180;20166;51.738;7.158;2023-08-12T08:43:21;100968.00;;;22.10
33877;BMP180;20166;51.738;7.158;2023-08-12T08:46:08;100961.00;;;22.10
33877;BMP180;20166;51.738;7.158;2023-08-12T08:48:55;100961.00;;;22.00
33877;BMP180;20166;51.738;7.158;2023-08-12T08:51:46;100958.00;;;22.10
33877;BMP180;20166;51.738;7.158;2023-08-12T08:54:34;100961.00;;;22.10
33877;BMP180;20166;51.738;7.158;2023-08-12T08:57:20;100961.00;;;22.10
33877;BMP180;20166;51.738;7.158;2023-08-12T09:00:25;100959.00;;;22.10
33877;BMP180;20166;51.738;7.158;2023-08-12T09:03:13;100967.00;;;22.10
33877;BMP180;20166;51.738;7.158;2023-08-12T09:06:00;100958.00;;;22.20
33877;BMP180;20166;51.738;7.158;2023-08-12T09:08:48;100957.00;;;22.20
33877;BMP180;20166;51.738;7.158;2023-08-12T09:11:39;100964.00;;;22.20
33877;BMP180;20166;51.738;7.158;2023-08-12T09:14:25;100966.00;;;22.30
33877;BMP180;20166;51.738;7.158;2023-08-12T09:17:12;100963.00;;;22.30
33877;BMP180;20166;51.738;7.158;2023-08-12T09:19:59;100959.00;;;22.30
33877;BMP180;20166;51.738;7.158;2023-08-12T09:22:45;100961.00;;;22.20
33877;BMP180;20166;51.738;7.158;2023-08-12T09:25:32;100969.00;;;22.20
33877;BMP180;20166;51.738;7.158;2023-08-12T09:28:24;100972.00;;;22.10
33877;BMP180;20166;51.738;7.158;2023-08-12T09:31:21;100970.00;;;22.00
33877;BMP180;20166;51.738;7.158;2023-08-12T09:34:08;100972.00;;;22.00
33877;BMP180;20166;51.738;7.158;2023-08-12T09:36:55;100972.00;;;22.00
33877;BMP180;20166;51.738;7.158;2023-08-12T09:39:41;100969.00;;;21.90
33877;BMP180;20166;51.738;7.158;2023-08-12T09:42:28;100966.00;;;21.90
33877;BMP180;20166;51.738;7.158;2023-08-12T09:45:15;100972.00;;;22.00
33877;BMP180;20166;51.738;7.158;2023-08-12T09:48:06;100964.00;;;22.00
33877;BMP180;20166;51.738;7.158;2023-08-12T09:50:55;100969.00;;;22.10
33877;BMP180;20166;51.738;7.158;2023-08-12T09:53:42;100966.00;;;22.10
33877;BMP180;20166;51.738;7.158;2023-08-12T09:56:31;100966.00;;;22.10
33877;BMP180;20166;51.738;7.158;2023-08-12T09:59:21;100958.00;;;22.00
33877;BMP180;20166;51.738;7.158;2023-08-12T10:02:12;100960.00;;;22.00
33877;BMP180;20166;51.738;7.158;2023-08-12T10:05:04;100969.00;;;22.00
33877;BMP180;20166;51.738;7.158;2023-08-12T10:07:51;100967.00;;;22.00
33877;BMP180;20166;51.738;7.158;2023-08-12T10:10:39;100968.00;;;22.00
33877;BMP180;20166;51.738;7.158;2023-08-12T10:13:26;100963.00;;;22.00
33877;BMP180;20166;51.738;7.158;2023-08-12T10:16:13;100970.00;;;22.00
33877;BMP180;20166;51.738;7.158;2023-08-12T10:19:02;100963.00;;;22.00
33877;BMP180;20166;51.738;7.158;2023-08-12T10:21:49;100968.00;;;22.00
33877;BMP180;20166;51.738;7.158;2023-08-12T10:24:37;100965.00;;;22.00
33877;BMP180;20166;51.738;7.158;2023-08-12T10:27:25;100961.00;;;22.00
33877;BMP180;20166;51.738;7.158;2023-08-12T10:30:13;100966.00;;;22.10
33877;BMP180;20166;51.738;7.158;2023-08-12T10:33:00;100966.00;;;22.20
33877;BMP180;20166;51.738;7.158;2023-08-12T10:35:49;100962.00;;;22.30
33877;BMP180;20166;51.738;7.158;2023-08-12T10:38:35;100975.00;;;22.40
33877;BMP180;20166;51.738;7.158;2023-08-12T10:41:24;100971.00;;;22.40
33877;BMP180;20166;51.738;7.158;2023-08-12T10:44:10;100971.00;;;22.50
33877;BMP180;20166;51.738;7.158;2023-08-12T10:46:58;100965.00;;;22.40
33877;BMP180;20166;51.738;7.158;2023-08-12T10:49:48;100968.00;;;22.50
33877;BMP180;20166;51.738;7.158;2023-08-12T10:52:36;100969.00;;;22.50
33877;BMP180;20166;51.738;7.158;2023-08-12T10:55:24;100969.00;;;22.50
33877;BMP180;20166;51.738;7.158;2023-08-12T10:58:24;100971.00;;;22.50
33877;BMP180;20166;51.738;7.158;2023-08-12T11:01:16;100975.00;;;22.40
33877;BMP180;20166;51.738;7.158;2023-08-12T11:04:16;100970.00;;;22.40
33877;BMP180;20166;51.738;7.158;2023-08-12T11:07:14;100967.00;;;22.30
33877;BMP180;20166;51.738;7.158;2023-08-12T11:10:10;100960.00;;;22.40
33877;BMP180;20166;51.738;7.158;2023-08-12T11:12:57;100959.00;;;22.60
33877;BMP180;20166;51.738;7.158;2023-08-12T11:15:44;100956.00;;;22.70
33877;BMP180;20166;51.738;7.158;2023-08-12T11:18:31;100949.00;;;23.00
33877;BMP180;20166;51.738;7.158;2023-08-12T11:21:18;100954.00;;;23.20
33877;BMP180;20166;51.738;7.158;2023-08-12T11:24:05;100949.00;;;23.30
33877;BMP180;20166;51.738;7.158;2023-08-12T11:26:53;100940.00;;;23.30
33877;BMP180;20166;51.738;7.158;2023-08-12T11:29:40;100936.00;;;23.30
33877;BMP180;20166;51.738;7.158;2023-08-12T11:32:26;100934.00;;;23.20
33877;BMP180;20166;51.738;7.158;2023-08-12T11:35:14;100937.00;;;23.30
33877;BMP180;20166;51.738;7.158;2023-08-12T11:38:01;100943.00;;;23.20
33877;BMP180;20166;51.738;7.158;2023-08-12T11:40:50;100941.00;;;23.10
33877;BMP180;20166;51.738;7.158;2023-08-12T11:43:37;100944.00;;;23.20
33877;BMP180;20166;51.738;7.158;2023-08-12T11:46:24;100941.00;;;23.50
33877;BMP180;20166;51.738;7.158;2023-08-12T11:49:11;100936.00;;;23.60
33877;BMP180;20166;51.738;7.158;2023-08-12T11:51:57;100937.00;;;23.80
33877;BMP180;20166;51.738;7.158;2023-08-12T11:54:44;100939.00;;;23.90
33877;BMP180;20166;51.738;7.158;2023-08-12T11:57:31;100933.00;;;24.00
33877;BMP180;20166;51.738;7.158;2023-08-12T12:00:21;100936.00;;;24.00
33877;BMP180;20166;51.738;7.158;2023-08-12T12:03:09;100934.00;;;24.10
33877;BMP180;20166;51.738;7.158;2023-08-12T12:05:56;100950.00;;;24.30
33877;BMP180;20166;51.738;7.158;2023-08-12T12:08:44;100942.00;;;24.10
33877;BMP180;20166;51.738;7.158;2023-08-12T12:11:30;100940.00;;;24.00
33877;BMP180;20166;51.738;7.158;2023-08-12T12:14:17;100940.00;;;24.00
33877;BMP180;20166;51.738;7.158;2023-08-12T12:17:08;100941.00;;;24.00
33877;BMP180;20166;51.738;7.158;2023-08-12T12:19:56;100948.00;;;24.00
33877;BMP180;20166;51.738;7.158;2023-08-12T12:22:44;100943.00;;;24.10
33877;BMP180;20166;51.738;7.158;2023-08-12T12:25:30;100945.00;;;24.30
33877;BMP180;20166;51.738;7.158;2023-08-12T12:28:17;100942.00;;;24.30
33877;BMP180;20166;51.738;7.158;2023-08-12T12:31:04;100951.00;;;24.30
33877;BMP180;20166;51.738;7.158;2023-08-12T12:33:51;100945.00;;;24.20
33877;BMP180;20166;51.738;7.158;2023-08-12T12:36:37;100958.00;;;24.00
33877;BMP180;20166;51.738;7.158;2023-08-12T12:39:24;100948.00;;;23.90
33877;BMP180;20166;51.738;7.158;2023-08-12T12:42:10;100955.00;;;23.90
33877;BMP180;20166;51.738;7.158;2023-08-12T12:44:57;100952.00;;;24.00
33877;BMP180;20166;51.738;7.158;2023-08-12T12:47:43;100940.00;;;24.10
33877;BMP180;20166;51.738;7.158;2023-08-12T12:50:31;100937.00;;;24.40
33877;BMP180;20166;51.738;7.158;2023-08-12T12:53:17;100946.00;;;24.50
33877;BMP180;20166;51.738;7.158;2023-08-12T12:56:04;100936.00;;;24.60
33877;BMP180;20166;51.738;7.158;2023-08-12T12:58:50;100941.00;;;24.60
33877;BMP180;20166;51.738;7.158;2023-08-12T13:01:36;100945.00;;;24.70
33877;BMP180;20166;51.738;7.158;2023-08-12T13:04:23;100952.00;;;24.80
33877;BMP180;20166;51.738;7.158;2023-08-12T13:07:10;100950.00;;;24.70
33877;BMP180;20166;51.738;7.158;2023-08-12T13:09:56;100942.00;;;24.60
33877;BMP180;20166;51.738;7.158;2023-08-12T13:12:43;100940.00;;;24.70
33877;BMP180;20166;51.738;7.158;2023-08-12T13:15:29;100950.00;;;24.70
33877;BMP180;20166;51.738;7.158;2023-08-12T13:18:18;100966.00;;;24.50
33877;BMP180;20166;51.738;7.158;2023-08-12T13:21:05;100957.00;;;24.40
33877;BMP180;20166;51.738;7.158;2023-08-12T13:23:52;100964.00;;;24.20
33877;BMP180;20166;51.738;7.158;2023-08-12T13:26:40;100967.00;;;24.10
33877;BMP180;20166;51.738;7.158;2023-08-12T13:29:26;100968.00;;;23.90
33877;BMP180;20166;51.738;7.158;2023-08-12T13:32:14;100973.00;;;23.70
33877;BMP180;20166;51.738;7.158;2023-08-12T13:35:00;100983.00;;;23.50
33877;BMP180;20166;51.738;7.158;2023-08-12T13:37:47;100989.00;;;23.50
33877;BMP180;20166;51.738;7.158;2023-08-12T13:40:38;100979.00;;;23.40
33877;BMP180;20166;51.738;7.158;2023-08-12T13:43:24;100976.00;;;23.20
33877;BMP180;20166;51.738;7.158;2023-08-12T13:46:11;100970.00;;;23.20
33877;BMP180;20166;51.738;7.158;2023-08-12T13:48:58;100971.00;;;23.20
33877;BMP180;20166;51.738;7.158;2023-08-12T13:51:44;100984.00;;;23.10
33877;BMP180;20166;51.738;7.158;2023-08-12T13:54:30;100984.00;;;23.00
33877;BMP180;20166;51.738;7.158;2023-08-12T13:57:18;100984.00;;;22.90
33877;BMP180;20166;51.738;7.158;2023-08-12T14:00:05;100999.00;;;22.80
33877;BMP180;20166;51.738;7.158;2023-08-12T14:02:54;101012.00;;;22.80
33877;BMP180;20166;51.738;7.158;2023-08-12T14:05:41;101009.00;;;22.80
33877;BMP180;20166;51.738;7.158;2023-08-12T14:08:28;101012.00;;;22.80
33877;BMP180;20166;51.738;7.158;2023-08-12T14:11:14;101018.00;;;22.90
33877;BMP180;20166;51.738;7.158;2023-08-12T14:14:02;101019.00;;;22.80
33877;BMP180;20166;51.738;7.158;2023-08-12T14:16:49;101024.00;;;22.80
33877;BMP180;20166;51.738;7.158;2023-08-12T14:19:36;101012.00;;;22.90
33877;BMP180;20166;51.738;7.158;2023-08-12T14:22:22;101009.00;;;23.10
33877;BMP180;20166;51.738;7.158;2023-08-12T14:25:09;101012.00;;;23.30
33877;BMP180;20166;51.738;7.158;2023-08-12T14:27:56;101008.00;;;23.70
33877;BMP180;20166;51.738;7.158;2023-08-12T14:30:44;101015.00;;;24.00
33877;BMP180;20166;51.738;7.158;2023-08-12T14:33:30;101015.00;;;24.50
33877;BMP180;20166;51.738;7.158;2023-08-12T14:36:17;101006.00;;;25.00
33877;BMP180;20166;51.738;7.158;2023-08-12T14:39:04;101005.00;;;25.90
33877;BMP180;20166;51.738;7.158;2023-08-12T14:41:50;100996.00;;;26.80
33877;BMP180;20166;51.738;7.158;2023-08-12T14:44:37;100994.00;;;27.90
33877;BMP180;20166;51.738;7.158;2023-08-12T14:47:25;101011.00;;;28.40
33877;BMP180;20166;51.738;7.158;2023-08-12T14:50:12;101008.00;;;28.10
33877;BMP180;20166;51.738;7.158;2023-08-12T14:52:58;100999.00;;;27.60
33877;BMP180;20166;51.738;7.158;2023-08-12T14:55:44;101017.00;;;27.10
33877;BMP180;20166;51.738;7.158;2023-08-12T14:58:33;101016.00;;;27.00
33877;BMP180;20166;51.738;7.158;2023-08-12T15:01:20;101009.00;;;28.00
33877;BMP180;20166;51.738;7.158;2023-08-12T15:04:10;101012.00;;;29.70
33877;BMP180;20166;51.738;7.158;2023-08-12T15:06:57;101015.00;;;31.10
33877;BMP180;20166;51.738;7.158;2023-08-12T15:09:43;101015.00;;;30.90
33877;BMP180;20166;51.738;7.158;2023-08-12T15:12:30;101020.00;;;29.50
33877;BMP180;20166;51.738;7.158;2023-08-12T15:15:16;101008.00;;;29.00
33877;BMP180;20166;51.738;7.158;2023-08-12T15:18:03;101028.00;;;28.80
33877;BMP180;20166;51.738;7.158;2023-08-12T15:20:51;101021.00;;;28.20
33877;BMP180;20166;51.738;7.158;2023-08-12T15:23:37;101016.00;;;27.20
33877;BMP180;20166;51.738;7.158;2023-08-12T15:26:23;101031.00;;;28.00
33877;BMP180;20166;51.738;7.158;2023-08-12T15:29:10;101031.00;;;29.30
33877;BMP180;20166;51.738;7.158;2023-08-12T15:31:56;101019.00;;;30.50
33877;BMP180;20166;51.738;7.158;2023-08-12T15:34:42;101021.00;;;31.20
33877;BMP180;20166;51.738;7.158;2023-08-12T15:37:30;101017.00;;;31.20
33877;BMP180;20166;51.738;7.158;2023-08-12T15:40:16;101035.00;;;31.00
33877;BMP180;20166;51.738;7.158;2023-08-12T15:43:02;101026.00;;;30.10
33877;BMP180;20166;51.738;7.158;2023-08-12T15:45:49;101027.00;;;28.60
33877;BMP180;20166;51.738;7.158;2023-08-12T15:48:36;101026.00;;;27.60
33877;BMP180;20166;51.738;7.158;2023-08-12T15:51:22;101030.00;;;26.70